Time;durP1;ratioP1;P1;durP2;ratioP2;P2;SDS_P1;SDS_P2;PMS_P1;PMS_P2;Temp;Humidity;BMP_temperature;BMP_pressure;BME280_temperature;BME280_humidity;BME280_pressure;Samples;Min_cycle;Max_cycle;Signal;HPM_P1;HPM_P2
2022/12/17 13:06:33;;;;;;;66.00;31.20;;;;;;;-3.28;78.70;99274.66;103059;1294;108080;-69
2022/12/17 13:09:27;;;;;;;64.80;30.40;;;;;;;-3.30;78.60;99286.65;103132;1291;97970;-69
2022/12/17 13:12:01;;;;;;;65.00;29.90;;;;;;;-3.28;78.88;99290.79;103176;1294;97859;-69
2022/12/17 13:14:44;;;;;;;64.70;29.80;;;;;;;-3.24;78.68;99295.77;103108;1301;111450;-70
2022/12/17 13:17:13;;;;;;;58.80;28.10;;;;;;;-3.24;78.97;99294.55;103150;1295;97885;-71
2022/12/17 13:19:57;;;;;;;65.20;29.20;;;;;;;-3.25;78.75;99281.02;103185;1297;107200;-73
2022/12/17 13:22:32;;;;;;;69.80;33.10;;;;;;;-3.24;78.51;99277.55;103216;1300;96256;-69
2022/12/17 13:25:19;;;;;;;62.70;27.90;;;;;;;-3.23;78.86;99285.52;103214;1294;97871;-68
2022/12/17 13:27:48;;;;;;;63.30;30.30;;;;;;;-3.22;78.72;99296.08;103199;1295;110301;-70
2022/12/17 13:30:22;;;;;;;59.80;27.90;;;;;;;-3.25;78.89;99300.11;103072;1298;97741;-70
2022/12/17 13:33:18;;;;;;;59.50;27.80;;;;;;;-3.29;78.59;99308.66;103251;1301;106365;-70
2022/12/17 13:35:58;;;;;;;59.40;28.90;;;;;;;-3.29;78.56;99310.40;103070;1293;97843;-71
2022/12/17 13:38:32;;;;;;;64.10;29.50;;;;;;;-3.29;78.63;99325.33;103157;1300;97962;-71
2022/12/17 13:41:10;;;;;;;59.90;30.30;;;;;;;-3.30;78.70;99323.95;103199;1294;111295;-71
2022/12/17 13:43:45;;;;;;;69.50;32.70;;;;;;;-3.30;78.82;99321.17;103196;1287;97687;-71
2022/12/17 13:46:25;;;;;;;69.10;32.50;;;;;;;-3.29;78.87;99327.40;103213;1294;107573;-73
2022/12/17 13:48:59;;;;;;;68.00;32.30;;;;;;;-3.24;78.68;99324.90;103186;1294;97442;-71
2022/12/17 13:51:31;;;;;;;65.80;31.80;;;;;;;-3.22;78.73;99331.81;103222;1300;95183;-72
2022/12/17 13:54:01;;;;;;;62.00;30.50;;;;;;;-3.21;78.57;99338.92;103173;1301;110955;-73
2022/12/17 13:56:32;;;;;;;68.90;34.10;;;;;;;-3.21;78.57;99347.08;103143;1300;95901;-71
2022/12/17 13:59:03;;;;;;;64.60;29.30;;;;;;;-3.25;78.55;99353.89;103242;1298;106271;-70
2022/12/17 14:01:45;;;;;;;65.10;30.00;;;;;;;-3.29;78.36;99353.94;103237;1300;98369;-70
2022/12/17 14:04:24;;;;;;;64.50;29.90;;;;;;;-3.34;78.61;99363.02;103252;1293;97910;-70
2022/12/17 14:06:55;;;;;;;65.30;31.10;;;;;;;-3.37;78.80;99368.08;103262;1294;110967;-70
2022/12/17 14:09:39;;;;;;;70.50;31.70;;;;;;;-3.36;78.61;99371.88;103268;1300;97974;-70
2022/12/17 14:12:20;;;;;;;69.60;29.80;;;;;;;-3.33;78.58;99351.02;103052;1297;107866;-70
2022/12/17 14:14:55;;;;;;;67.10;31.10;;;;;;;-3.30;78.82;99351.52;103192;1294;97881;-70
2022/12/17 14:17:29;;;;;;;64.50;31.80;;;;;;;-3.26;78.66;99381.30;103168;1301;97839;-70
2022/12/17 14:20:04;;;;;;;67.40;31.50;;;;;;;-3.26;78.50;99386.86;103283;1300;111732;-69
2022/12/17 14:22:37;;;;;;;68.70;31.70;;;;;;;-3.28;78.69;99384.96;103215;1299;97873;-71
2022/12/17 14:25:31;;;;;;;61.60;28.40;;;;;;;-3.26;78.52;99376.64;103217;1300;107683;-69
2022/12/17 14:28:04;;;;;;;75.10;34.90;;;;;;;-3.26;78.65;99380.62;103200;1300;95215;-69
2022/12/17 14:30:31;;;;;;;66.90;32.10;;;;;;;-3.25;78.58;99389.27;103204;1294;97875;-71
2022/12/17 14:32:59;;;;;;;78.20;36.90;;;;;;;-3.25;78.54;99394.81;103210;1301;111146;-71
2022/12/17 14:35:38;;;;;;;78.40;35.70;;;;;;;-3.29;78.45;99396.77;103220;1294;95121;-71
2022/12/17 14:38:17;;;;;;;69.60;33.20;;;;;;;-3.28;78.49;99406.99;103093;1294;107443;-72
2022/12/17 14:44:01;;;;;;;69.60;34.80;;;;;;;-3.30;78.48;99421.41;103251;1294;95154;-71
2022/12/17 14:46:32;;;;;;;72.90;34.20;;;;;;;-3.30;78.43;99422.80;103331;1300;111725;-70
2022/12/17 14:49:04;;;;;;;71.10;34.40;;;;;;;-3.34;78.36;99428.40;103335;1294;96327;-71
2022/12/17 14:51:37;;;;;;;78.40;35.80;;;;;;;-3.38;78.43;99431.90;103238;1300;107400;-74
2022/12/17 14:54:31;;;;;;;77.80;35.00;;;;;;;-3.42;78.39;99433.66;103230;1295;97856;-72
2022/12/17 14:57:19;;;;;;;83.60;39.20;;;;;;;-3.45;78.50;99440.81;103232;1297;97899;-70
2022/12/17 14:59:49;;;;;;;83.00;39.20;;;;;;;-3.49;78.30;99450.21;103215;1300;111161;-72
2022/12/17 15:02:27;;;;;;;81.00;37.40;;;;;;;-3.52;78.43;99451.45;103284;1295;97895;-72
2022/12/17 15:05:01;;;;;;;69.80;34.20;;;;;;;-3.52;78.51;99456.84;103214;1297;107329;-71
2022/12/17 15:07:32;;;;;;;70.80;32.80;;;;;;;-3.51;78.46;99457.70;103235;1295;97976;-72
2022/12/17 15:09:59;;;;;;;75.40;36.00;;;;;;;-3.51;78.55;99459.08;103295;1295;97808;-72
2022/12/17 15:12:30;;;;;;;68.10;32.60;;;;;;;-3.50;78.80;99459.94;103241;1300;111329;-71
2022/12/17 15:14:58;;;;;;;66.90;33.10;;;;;;;-3.50;78.64;99464.61;103083;1298;97818;-71
2022/12/17 15:17:26;;;;;;;60.00;30.20;;;;;;;-3.52;78.44;99471.57;103220;1295;107402;-72
2022/12/17 15:19:54;;;;;;;69.30;32.60;;;;;;;-3.56;78.31;99471.25;103260;1300;97955;-71
2022/12/17 15:22:24;;;;;;;71.40;33.90;;;;;;;-3.64;78.47;99479.46;103266;1303;97905;-71
2022/12/17 15:24:52;;;;;;;73.40;34.00;;;;;;;-3.68;78.48;99480.02;103280;1294;111162;-71
2022/12/17 15:27:20;;;;;;;65.60;30.90;;;;;;;-3.72;78.40;99482.13;103325;1301;97722;-71
2022/12/17 15:29:49;;;;;;;67.10;32.10;;;;;;;-3.70;78.62;99485.08;103241;1301;106701;-70
2022/12/17 15:32:21;;;;;;;71.10;33.50;;;;;;;-3.71;78.37;99492.52;103226;1297;98471;-70
2022/12/17 15:34:49;;;;;;;76.40;35.90;;;;;;;-3.73;78.46;99491.48;103169;1294;96498;-72
2022/12/17 15:37:17;;;;;;;66.90;32.20;;;;;;;-3.73;78.51;99498.78;103297;1300;111092;-71
2022/12/17 15:39:55;;;;;;;70.80;32.40;;;;;;;-3.72;78.49;99504.85;103251;1300;96241;-71
2022/12/17 15:45:13;;;;;;;67.80;31.80;;;;;;;-3.71;78.66;99505.02;103233;1302;97969;-71
2022/12/17 15:47:41;;;;;;;72.30;32.10;;;;;;;-3.71;78.51;99510.20;103225;1295;98006;-70
2022/12/17 15:50:09;;;;;;;67.70;32.90;;;;;;;-3.74;78.51;99517.14;103326;1301;112065;-72
2022/12/17 15:52:37;;;;;;;77.40;33.50;;;;;;;-3.75;78.39;99522.53;103203;1302;98006;-72
2022/12/17 15:55:06;;;;;;;73.60;34.00;;;;;;;-3.75;78.67;99528.42;103229;1299;107558;-71
2022/12/17 15:57:33;;;;;;;79.00;34.60;;;;;;;-3.77;78.63;99530.17;103287;1287;97558;-71
2022/12/17 16:00:03;;;;;;;76.80;35.80;;;;;;;-3.80;78.56;99532.63;103277;1300;98150;-71
2022/12/17 16:02:31;;;;;;;81.30;34.90;;;;;;;-3.83;78.54;99535.40;103248;1301;111228;-72
2022/12/17 16:05:00;;;;;;;74.10;35.20;;;;;;;-3.85;78.26;99537.16;103418;1293;97970;-71
2022/12/17 16:07:28;;;;;;;72.50;34.30;;;;;;;-3.84;78.55;99540.44;103208;1287;107577;-71
2022/12/17 16:09:57;;;;;;;81.20;40.00;;;;;;;-3.85;78.73;99540.45;103127;1291;98045;-72
2022/12/17 16:12:32;;;;;;;78.60;38.00;;;;;;;-3.85;78.41;99541.83;103182;1301;97891;-74
2022/12/17 16:15:00;;;;;;;74.20;35.00;;;;;;;-3.86;78.78;99546.17;102983;1294;111816;-75
2022/12/17 16:17:28;;;;;;;71.80;34.90;;;;;;;-3.87;78.65;99542.73;103058;1291;96953;-77
2022/12/17 16:19:56;;;;;;;80.90;36.20;;;;;;;-3.87;78.46;99543.06;103142;1287;107144;-73
2022/12/17 16:22:24;;;;;;;73.60;35.20;;;;;;;-3.86;78.58;99546.35;103094;1294;97974;-72
2022/12/17 16:24:53;;;;;;;75.30;33.80;;;;;;;-3.86;78.59;99552.23;103145;1288;95288;-74
2022/12/17 16:27:20;;;;;;;71.10;31.20;;;;;;;-3.89;78.33;99548.29;103222;1295;110363;-71
2022/12/17 16:29:49;;;;;;;76.70;34.30;;;;;;;-3.92;78.57;99551.41;103136;1294;96008;-73
2022/12/17 16:32:17;;;;;;;75.70;33.80;;;;;;;-3.91;78.85;99555.23;102987;1287;107499;-71
2022/12/17 16:34:45;;;;;;;70.80;33.90;;;;;;;-3.90;78.85;99557.30;102970;1285;96445;-74
2022/12/17 16:37:13;;;;;;;72.90;35.60;;;;;;;-3.88;78.73;99557.80;103301;1294;96354;-73
2022/12/17 16:39:42;;;;;;;73.70;33.20;;;;;;;-3.85;78.68;99565.58;103243;1300;111620;-72
2022/12/17 16:42:10;;;;;;;78.00;37.20;;;;;;;-3.81;78.73;99570.23;103251;1302;97866;-75
2022/12/17 16:44:38;;;;;;;84.90;39.40;;;;;;;-3.78;78.73;99570.39;103068;1302;106420;-74
2022/12/17 16:47:06;;;;;;;97.90;42.60;;;;;;;-3.76;78.47;99574.36;103124;1295;147406;-73
2022/12/17 16:49:34;;;;;;;99.40;44.00;;;;;;;-3.74;78.60;99577.48;103242;1293;97911;-74
2022/12/17 16:52:02;;;;;;;95.40;42.50;;;;;;;-3.75;78.55;99580.77;103252;1294;110858;-76
2022/12/17 16:54:31;;;;;;;98.50;43.70;;;;;;;-3.79;78.36;99587.38;103259;1294;97862;-72
2022/12/17 16:57:00;;;;;;;95.60;41.60;;;;;;;-3.81;78.65;99593.11;103392;1294;107277;-74
2022/12/17 16:59:29;;;;;;;95.80;41.30;;;;;;;-3.85;78.64;99599.20;103142;1297;98058;-76
2022/12/17 17:01:59;;;;;;;93.60;41.30;;;;;;;-3.87;78.36;99598.52;103332;1294;95232;-73
2022/12/17 17:04:27;;;;;;;93.70;39.80;;;;;;;-3.90;78.71;99604.78;103255;1301;111245;-72
2022/12/17 17:06:56;;;;;;;97.70;42.40;;;;;;;-3.92;78.69;99606.00;103151;1301;97918;-74
2022/12/17 17:09:24;;;;;;;107.00;43.30;;;;;;;-3.97;78.76;99604.45;103162;1302;107587;-75
2022/12/17 17:11:57;;;;;;;92.30;41.70;;;;;;;-3.99;78.61;99607.42;103276;1294;97943;-73
2022/12/17 17:14:26;;;;;;;95.60;40.10;;;;;;;-4.00;78.60;99607.59;103292;1301;97974;-71
2022/12/17 17:16:54;;;;;;;98.10;42.60;;;;;;;-4.01;78.49;99614.52;103231;1294;112072;-71
2022/12/17 17:19:22;;;;;;;97.70;43.30;;;;;;;-4.01;78.72;99618.33;103264;1293;97972;-71
2022/12/17 17:21:52;;;;;;;95.60;38.60;;;;;;;-4.07;78.67;99618.70;103314;1293;107593;-70
2022/12/17 17:24:24;;;;;;;94.60;39.40;;;;;;;-4.11;78.72;99618.21;103294;1295;97881;-70
2022/12/17 17:26:53;;;;;;;98.70;41.50;;;;;;;-4.14;78.82;99624.10;103429;1296;95201;-74
2022/12/17 17:29:21;;;;;;;104.20;43.00;;;;;;;-4.15;78.56;99632.77;103333;1301;110845;-70
2022/12/17 17:31:49;;;;;;;103.80;44.10;;;;;;;-4.16;78.92;99634.85;103338;1299;97772;-72
2022/12/17 17:34:38;;;;;;;105.10;46.20;;;;;;;-4.16;78.84;99634.33;103239;1300;107313;-71
2022/12/17 17:37:07;;;;;;;99.90;41.80;;;;;;;-4.18;78.65;99636.41;103246;1295;95198;-70
2022/12/17 17:39:35;;;;;;;93.30;39.50;;;;;;;-4.19;78.68;99645.08;103309;1293;97850;-69
2022/12/17 17:42:04;;;;;;;89.40;36.50;;;;;;;-4.20;78.51;99652.19;103018;1304;111229;-71
2022/12/17 17:44:32;;;;;;;88.20;39.20;;;;;;;-4.21;78.82;99658.09;103288;1299;97980;-71
2022/12/17 17:47:00;;;;;;;88.30;38.80;;;;;;;-4.23;78.49;99665.52;103209;1295;107180;-70
2022/12/17 17:49:28;;;;;;;87.20;39.20;;;;;;;-4.25;78.58;99671.95;103256;1294;97958;-70
2022/12/17 17:51:56;;;;;;;89.40;40.00;;;;;;;-4.26;78.72;99674.54;103337;1294;97877;-68
2022/12/17 17:54:41;;;;;;;91.80;40.50;;;;;;;-4.28;78.50;99678.89;103232;1308;111893;-69
2022/12/17 17:57:10;;;;;;;93.90;39.90;;;;;;;-4.29;78.76;99682.17;103371;1302;98010;-69
2022/12/17 17:59:38;;;;;;;92.10;37.60;;;;;;;-4.27;78.81;99683.02;103329;1300;107360;-70
2022/12/17 18:02:09;;;;;;;97.40;42.70;;;;;;;-4.26;78.62;99689.60;103267;1300;95189;-70
2022/12/17 18:04:38;;;;;;;94.50;40.20;;;;;;;-4.30;78.46;99693.61;103253;1302;97977;-71
2022/12/17 18:07:07;;;;;;;88.00;39.50;;;;;;;-4.30;78.56;99699.67;103124;1303;111429;-71
2022/12/17 18:09:52;;;;;;;100.40;42.60;;;;;;;-4.30;78.71;99704.00;103301;1299;96372;-72
2022/12/17 18:15:08;;;;;;;91.80;37.00;;;;;;;-4.30;78.64;99717.52;103273;1302;97997;-70
2022/12/17 18:17:45;;;;;;;99.80;41.20;;;;;;;-4.30;78.54;99718.02;103314;1294;98010;-70
2022/12/17 18:20:14;;;;;;;101.70;43.70;;;;;;;-4.31;78.81;99720.63;103263;1291;111236;-71
2022/12/17 18:22:44;;;;;;;87.90;40.70;;;;;;;-4.31;78.78;99720.64;103240;1300;97018;-71
2022/12/17 18:25:16;;;;;;;97.50;44.50;;;;;;;-4.31;78.75;99727.38;103262;1298;106058;-72
2022/12/17 18:27:47;;;;;;;103.10;41.80;;;;;;;-4.32;78.58;99732.58;103285;1293;96538;-72
2022/12/17 18:30:15;;;;;;;109.80;47.00;;;;;;;-4.35;78.66;99740.70;103289;1300;97764;-72
2022/12/17 18:32:49;;;;;;;100.80;45.90;;;;;;;-4.35;78.65;99744.17;103287;1296;111014;-73
2022/12/17 18:35:17;;;;;;;74.20;32.30;;;;;;;-4.34;78.53;99749.54;103309;1300;96615;-71
2022/12/17 18:37:45;;;;;;;88.90;38.50;;;;;;;-4.34;78.74;99752.83;103252;1300;107531;-73
2022/12/17 18:40:13;;;;;;;93.70;43.30;;;;;;;-4.34;78.76;99750.24;103291;1290;97880;-75
2022/12/17 18:45:29;;;;;;;106.80;47.50;;;;;;;-4.32;78.74;99754.21;103272;1290;111144;-74
2022/12/17 18:47:57;;;;;;;94.80;40.80;;;;;;;-4.31;78.81;99752.31;103214;1298;96947;-73
2022/12/17 18:50:25;;;;;;;93.70;41.00;;;;;;;-4.30;78.73;99755.60;103297;1296;106532;-74
2022/12/17 18:52:53;;;;;;;110.10;46.10;;;;;;;-4.30;78.56;99757.52;103151;1307;95221;-74
2022/12/17 18:55:21;;;;;;;98.80;43.10;;;;;;;-4.32;78.64;99762.88;103361;1302;97870;-74
2022/12/17 18:57:49;;;;;;;92.70;41.60;;;;;;;-4.32;78.74;99765.98;103308;1293;111113;-74
2022/12/17 19:00:17;;;;;;;97.30;41.10;;;;;;;-4.31;78.73;99771.89;103203;1300;97671;-72
2022/12/17 19:02:45;;;;;;;100.70;44.20;;;;;;;-4.29;78.83;99777.60;103224;1300;107455;-71
2022/12/17 19:05:14;;;;;;;97.70;42.30;;;;;;;-4.31;78.63;99777.25;103183;1300;97845;-71
2022/12/17 19:07:42;;;;;;;112.50;46.40;;;;;;;-4.31;78.87;99773.96;103091;1305;98041;-72
2022/12/17 19:10:10;;;;;;;101.90;44.70;;;;;;;-4.33;78.87;99769.81;103254;1295;111243;-72
2022/12/17 19:12:38;;;;;;;103.70;46.40;;;;;;;-4.34;78.64;99774.83;103231;1300;97881;-70
2022/12/17 19:15:07;;;;;;;96.30;44.70;;;;;;;-4.35;78.66;99773.09;103210;1300;107625;-73
2022/12/17 19:17:35;;;;;;;97.70;44.80;;;;;;;-4.34;78.71;99777.08;103252;1302;97950;-67
2022/12/17 19:20:04;;;;;;;107.70;48.10;;;;;;;-4.34;78.87;99781.24;103224;1300;95201;-71
2022/12/17 19:22:32;;;;;;;110.30;50.70;;;;;;;-4.37;78.82;99784.52;103243;1302;111241;-71
2022/12/17 19:25:00;;;;;;;103.90;45.60;;;;;;;-4.38;78.70;99788.85;103231;1300;95215;-73
2022/12/17 19:27:28;;;;;;;99.60;46.40;;;;;;;-4.39;78.66;99789.20;103045;1293;107227;-71
2022/12/17 19:29:56;;;;;;;95.60;41.30;;;;;;;-4.39;78.72;99797.17;103223;1294;97957;-73
2022/12/17 19:32:24;;;;;;;117.10;48.20;;;;;;;-4.39;78.61;99803.05;103237;1295;95208;-73
2022/12/17 19:34:52;;;;;;;105.00;48.10;;;;;;;-4.39;78.58;99806.34;103254;1300;111591;-74
2022/12/17 19:37:20;;;;;;;98.10;42.60;;;;;;;-4.39;78.85;99810.50;103263;1296;97900;-73
2022/12/17 19:39:48;;;;;;;110.20;46.30;;;;;;;-4.39;78.91;99813.96;103228;1295;107218;-69
2022/12/17 19:42:26;;;;;;;103.60;45.10;;;;;;;-4.38;78.72;99821.58;103062;1303;95556;-74
2022/12/17 19:45:04;;;;;;;112.20;45.10;;;;;;;-4.37;78.63;99822.27;103285;1295;97987;-78
2022/12/17 19:47:32;;;;;;;108.60;48.30;;;;;;;-4.37;78.83;99827.13;103222;1300;111243;-74
2022/12/17 19:50:00;;;;;;;101.30;45.70;;;;;;;-4.38;78.79;99829.02;103185;1298;96279;-74
2022/12/17 19:52:27;;;;;;;107.30;48.60;;;;;;;-4.40;78.57;99832.14;103249;1294;107482;-76
2022/12/17 19:54:56;;;;;;;103.00;45.70;;;;;;;-4.39;78.71;99833.53;103274;1294;97937;-72
2022/12/17 19:57:24;;;;;;;106.60;44.30;;;;;;;-4.40;78.83;99837.52;103323;1301;95409;-71
2022/12/17 19:59:52;;;;;;;105.50;45.10;;;;;;;-4.41;78.93;99843.05;103307;1294;111147;-73
2022/12/17 20:02:20;;;;;;;103.50;45.60;;;;;;;-4.40;78.90;99843.39;103259;1300;97900;-74
2022/12/17 20:04:49;;;;;;;104.60;46.40;;;;;;;-4.39;78.84;99849.45;103322;1284;105424;-74
2022/12/17 20:07:17;;;;;;;102.80;46.30;;;;;;;-4.38;78.93;99852.23;103337;1291;97893;-73
2022/12/17 20:09:45;;;;;;;100.40;41.60;;;;;;;-4.37;78.79;99858.46;103339;1295;97942;-74
2022/12/17 20:12:13;;;;;;;109.60;45.50;;;;;;;-4.39;78.77;99865.38;103353;1295;111158;-76
2022/12/17 20:14:41;;;;;;;106.70;46.10;;;;;;;-4.40;78.82;99870.23;103249;1294;97882;-73
2022/12/17 20:17:09;;;;;;;115.70;46.30;;;;;;;-4.40;78.77;99870.06;103138;1296;107527;-73
2022/12/17 20:19:37;;;;;;;103.90;43.80;;;;;;;-4.41;78.79;99878.71;103138;1302;97939;-73
2022/12/17 20:22:05;;;;;;;105.60;44.60;;;;;;;-4.43;78.61;99886.67;103133;1287;97877;-74
2022/12/17 20:24:33;;;;;;;106.60;46.70;;;;;;;-4.42;78.66;99885.81;103058;1296;111211;-74
2022/12/17 20:27:01;;;;;;;115.30;48.40;;;;;;;-4.43;78.65;99887.02;103092;1298;97967;-75
2022/12/17 20:29:30;;;;;;;112.90;49.30;;;;;;;-4.44;78.73;99890.65;103200;1293;107155;-74
2022/12/17 20:31:59;;;;;;;111.70;48.30;;;;;;;-4.44;78.63;99893.77;103067;1294;97851;-74
2022/12/17 20:34:27;;;;;;;115.10;50.80;;;;;;;-4.44;78.96;99896.20;103248;1295;97864;-73
2022/12/17 20:36:55;;;;;;;113.50;45.60;;;;;;;-4.45;78.42;99899.65;103017;1294;110908;-73
2022/12/17 20:39:22;;;;;;;99.60;45.90;;;;;;;-4.46;78.60;99900.88;103067;1287;97952;-77
2022/12/17 20:41:55;;;;;;;107.40;47.30;;;;;;;-4.46;78.70;99908.30;103226;1293;106613;-73
2022/12/17 20:44:24;;;;;;;109.10;41.20;;;;;;;-4.48;78.63;99914.20;103181;1299;98408;-74
2022/12/17 20:46:52;;;;;;;106.50;43.40;;;;;;;-4.49;78.56;99919.89;103004;1294;98048;-74
2022/12/17 20:49:20;;;;;;;87.40;38.60;;;;;;;-4.50;78.67;99925.27;103244;1294;111330;-71
2022/12/17 20:51:48;;;;;;;119.50;49.50;;;;;;;-4.50;78.82;99928.23;103270;1295;97955;-70
2022/12/17 20:54:16;;;;;;;108.50;48.40;;;;;;;-4.51;78.60;99936.89;103216;1300;107503;-75
2022/12/17 20:56:45;;;;;;;106.00;42.80;;;;;;;-4.50;78.96;99940.01;103277;1294;95169;-71
2022/12/17 20:59:16;;;;;;;115.30;43.40;;;;;;;-4.50;78.91;99945.71;103283;1295;97927;-69
2022/12/17 21:01:45;;;;;;;107.30;43.90;;;;;;;-4.52;78.72;99946.73;103254;1297;111742;-69
2022/12/17 21:04:21;;;;;;;104.20;42.10;;;;;;;-4.53;78.72;99955.21;103231;1300;97771;-71
2022/12/17 21:06:50;;;;;;;99.50;39.40;;;;;;;-4.54;78.82;99965.43;103283;1300;107982;-69
2022/12/17 21:09:21;;;;;;;110.10;44.10;;;;;;;-4.56;78.77;99969.05;103273;1295;98929;-71
2022/12/17 21:11:49;;;;;;;100.80;40.90;;;;;;;-4.62;78.53;99970.23;103324;1288;97887;-68
2022/12/17 21:14:18;;;;;;;114.00;44.50;;;;;;;-4.66;78.61;99974.04;103304;1287;111639;-68
2022/12/17 21:16:46;;;;;;;109.90;44.90;;;;;;;-4.70;78.63;99981.47;103307;1294;95209;-68
2022/12/17 21:19:17;;;;;;;105.90;38.60;;;;;;;-4.74;78.62;99981.98;103282;1294;108015;-68
2022/12/17 21:21:46;;;;;;;102.40;40.20;;;;;;;-4.76;78.62;99989.40;103273;1295;97857;-67
2022/12/17 21:24:14;;;;;;;107.40;42.10;;;;;;;-4.76;78.49;99992.17;103249;1296;98441;-69
2022/12/17 21:26:44;;;;;;;105.10;43.40;;;;;;;-4.78;78.51;99991.65;103169;1294;111217;-68
2022/12/17 21:29:13;;;;;;;99.00;37.30;;;;;;;-4.79;78.51;100000.46;103310;1301;97983;-69
2022/12/17 21:31:46;;;;;;;101.20;40.10;;;;;;;-4.79;78.59;100002.55;103272;1294;106582;-67
2022/12/17 21:34:20;;;;;;;109.50;42.60;;;;;;;-4.81;78.47;100005.31;103253;1308;97820;-68
2022/12/17 21:36:49;;;;;;;108.70;40.60;;;;;;;-4.85;78.48;100011.67;103261;1294;97986;-69
2022/12/17 21:39:18;;;;;;;108.60;40.20;;;;;;;-4.89;78.58;100014.60;103065;1303;111166;-68
2022/12/17 21:44:35;;;;;;;103.60;40.70;;;;;;;-4.92;78.81;100024.45;103242;1298;108091;-69
2022/12/17 21:47:04;;;;;;;113.20;42.80;;;;;;;-4.94;78.47;100033.26;103201;1301;97856;-69
2022/12/17 21:49:32;;;;;;;105.90;43.60;;;;;;;-4.98;78.70;100035.65;103272;1300;97908;-71
2022/12/17 21:52:01;;;;;;;106.20;40.00;;;;;;;-4.99;78.67;100034.09;103299;1299;111153;-69
2022/12/17 21:54:29;;;;;;;109.00;40.50;;;;;;;-5.00;78.44;100041.00;103119;1303;96286;-70
2022/12/17 21:56:58;;;;;;;116.60;42.00;;;;;;;-5.03;78.45;100041.49;103304;1301;107992;-68
2022/12/17 21:59:25;;;;;;;101.60;37.60;;;;;;;-5.09;78.76;100043.54;103272;1301;97871;-69
2022/12/17 22:01:55;;;;;;;110.20;39.00;;;;;;;-5.13;78.58;100051.82;103157;1298;97831;-69
2022/12/17 22:04:25;;;;;;;109.00;39.30;;;;;;;-5.16;78.51;100051.09;103260;1300;111828;-70
2022/12/17 22:06:54;;;;;;;98.10;36.60;;;;;;;-5.20;78.75;100059.19;103185;1298;96519;-68
2022/12/17 22:09:35;;;;;;;100.50;39.00;;;;;;;-5.23;78.70;100055.38;103188;1300;107564;-71
2022/12/17 22:15:11;;;;;;;99.70;35.90;;;;;;;-5.25;78.62;100070.05;103253;1294;97891;-68
2022/12/17 22:17:41;;;;;;;94.30;33.70;;;;;;;-5.24;78.58;100073.17;103217;1293;110192;-69
2022/12/17 22:20:10;;;;;;;91.90;33.10;;;;;;;-5.24;78.66;100074.04;103175;1294;98071;-70
2022/12/17 22:22:38;;;;;;;92.90;35.30;;;;;;;-5.24;78.50;100077.33;103170;1294;107313;-68
2022/12/17 22:25:08;;;;;;;90.80;33.70;;;;;;;-5.25;78.59;100077.66;103262;1301;97671;-68
2022/12/17 22:27:40;;;;;;;100.40;35.80;;;;;;;-5.29;78.71;100081.44;103253;1295;97880;-69
2022/12/17 22:33:02;;;;;;;89.60;32.50;;;;;;;-5.34;78.50;100084.69;103163;1300;97908;-68
2022/12/17 22:35:50;;;;;;;91.70;33.30;;;;;;;-5.36;78.61;100087.27;103157;1300;108167;-68
2022/12/17 22:38:38;;;;;;;85.00;33.40;;;;;;;-5.37;78.72;100093.82;103082;1300;98995;-69
2022/12/17 22:44:33;;;;;;;93.60;36.00;;;;;;;-5.39;78.66;100105.23;103307;1295;111825;-69
2022/12/17 22:47:21;;;;;;;91.00;33.30;;;;;;;-5.40;78.55;100115.06;103274;1280;97984;-68
2022/12/17 22:49:49;;;;;;;83.40;32.20;;;;;;;-5.41;78.49;100121.10;103310;1295;107652;-69
2022/12/17 22:52:18;;;;;;;78.60;30.20;;;;;;;-5.42;78.59;100131.30;103156;1302;97907;-70
2022/12/17 22:54:48;;;;;;;90.50;35.00;;;;;;;-5.41;78.58;100131.65;103139;1301;97931;-67
2022/12/17 22:57:16;;;;;;;86.60;31.30;;;;;;;-5.38;78.59;100134.61;103153;1303;111771;-67
2022/12/17 23:00:21;;;;;;;83.90;29.90;;;;;;;-5.37;78.69;100141.19;103184;1303;98042;-69
2022/12/17 23:02:52;;;;;;;85.00;32.40;;;;;;;-5.37;78.71;100143.44;103257;1296;106457;-70
2022/12/17 23:05:22;;;;;;;87.30;32.90;;;;;;;-5.34;78.53;100144.86;103297;1295;97885;-70
2022/12/17 23:07:51;;;;;;;85.30;36.20;;;;;;;-5.32;78.63;100153.52;103204;1295;98611;-69
2022/12/17 23:10:21;;;;;;;86.90;35.10;;;;;;;-5.33;78.48;100154.55;103277;1297;110962;-69
2022/12/17 23:12:55;;;;;;;80.80;30.70;;;;;;;-5.34;78.64;100157.65;103330;1296;97946;-70
2022/12/17 23:15:25;;;;;;;89.30;33.80;;;;;;;-5.31;78.74;100164.08;103320;1294;107271;-69
2022/12/17 23:17:57;;;;;;;83.20;30.90;;;;;;;-5.29;78.71;100164.09;103300;1301;98615;-70
2022/12/17 23:20:28;;;;;;;88.00;33.00;;;;;;;-5.27;78.78;100167.73;103314;1296;97754;-70
2022/12/17 23:22:56;;;;;;;81.70;29.40;;;;;;;-5.25;78.62;100172.95;103265;1295;110580;-68
2022/12/17 23:25:25;;;;;;;91.20;34.50;;;;;;;-5.23;78.84;100175.73;103264;1301;97989;-70
2022/12/17 23:27:53;;;;;;;91.40;32.80;;;;;;;-5.21;78.67;100179.20;103296;1294;107130;-71
2022/12/17 23:30:21;;;;;;;84.70;33.10;;;;;;;-5.22;78.52;100180.58;103186;1300;97963;-70
2022/12/17 23:32:50;;;;;;;79.10;31.20;;;;;;;-5.19;78.50;100182.86;103213;1295;96877;-69
2022/12/17 23:35:19;;;;;;;91.40;33.20;;;;;;;-5.17;78.60;100176.66;103218;1296;111833;-69
2022/12/17 23:37:48;;;;;;;80.50;31.40;;;;;;;-5.17;78.64;100185.31;103212;1300;97891;-69
2022/12/17 23:40:16;;;;;;;94.90;32.00;;;;;;;-5.15;78.69;100183.95;103180;1300;109083;-68
2022/12/17 23:42:44;;;;;;;89.60;34.70;;;;;;;-5.16;78.51;100187.39;103218;1294;95176;-70
2022/12/17 23:45:13;;;;;;;96.40;34.40;;;;;;;-5.18;78.56;100194.11;103240;1298;97895;-70
2022/12/17 23:47:40;;;;;;;77.80;29.80;;;;;;;-5.17;78.71;100197.23;103243;1301;111186;-69
2022/12/17 23:50:10;;;;;;;92.00;33.30;;;;;;;-5.16;78.60;100205.55;103274;1293;99035;-68
2022/12/17 23:52:38;;;;;;;91.70;34.50;;;;;;;-5.17;78.62;100205.20;103349;1288;107562;-69
2022/12/17 23:55:10;;;;;;;94.30;37.00;;;;;;;-5.17;78.49;100211.08;103231;1299;97886;-68
2022/12/17 23:57:38;;;;;;;92.70;35.60;;;;;;;-5.18;78.49;100217.12;103199;1295;97893;-68
